createdAt,value
2023-02-18T00:02:19.294Z,24.50
2023-02-18T00:04:47.526Z,25.47
2023-02-18T00:07:15.723Z,25.87
2023-02-18T00:09:44.012Z,26.73
2023-02-18T00:12:13.607Z,30.53
2023-02-18T00:14:41.894Z,24.00
2023-02-18T00:17:10.209Z,23.73
2023-02-18T00:19:38.885Z,27.87
2023-02-18T00:22:07.389Z,24.70
2023-02-18T00:24:36.059Z,23.90
2023-02-18T00:27:04.462Z,23.93
2023-02-18T00:29:34.363Z,23.80
2023-02-18T00:32:02.916Z,25.87
2023-02-18T00:34:31.301Z,24.07
2023-02-18T00:36:59.670Z,21.60
2023-02-18T00:39:28.091Z,22.53
2023-02-18T00:41:56.385Z,22.10
2023-02-18T00:44:24.759Z,19.93
2023-02-18T00:46:54.398Z,23.67
2023-02-18T00:49:22.730Z,20.23
2023-02-18T00:51:50.989Z,20.20
2023-02-18T00:54:19.217Z,18.53
2023-02-18T00:56:47.882Z,19.47
2023-02-18T00:59:16.118Z,19.40
2023-02-18T01:01:45.078Z,19.53
2023-02-18T01:04:14.790Z,17.30
2023-02-18T01:06:43.018Z,18.30
2023-02-18T01:09:11.637Z,18.67
2023-02-18T01:11:39.967Z,17.83
2023-02-18T01:14:08.583Z,14.73
2023-02-18T01:16:36.894Z,15.03
2023-02-18T01:19:05.312Z,19.80
2023-02-18T01:21:34.910Z,14.50
2023-02-18T01:24:03.126Z,16.20
2023-02-18T01:26:32.649Z,17.33
2023-02-18T01:29:00.884Z,16.40
2023-02-18T01:31:29.204Z,15.27
2023-02-18T01:33:57.519Z,15.30
2023-02-18T01:36:25.807Z,17.17
2023-02-18T01:38:59.003Z,14.33
2023-02-18T01:41:27.411Z,19.03
2023-02-18T01:44:17.541Z,16.57
2023-02-18T01:46:47.365Z,21.33
2023-02-18T01:49:20.060Z,17.70
2023-02-18T01:51:52.521Z,17.07
2023-02-18T01:54:25.531Z,17.67
2023-02-18T01:56:58.693Z,19.57
2023-02-18T01:59:32.375Z,15.00
2023-02-18T02:02:01.348Z,14.73
2023-02-18T02:04:31.689Z,16.33
2023-02-18T02:07:00.107Z,19.90
2023-02-18T02:09:32.157Z,15.90
2023-02-18T02:12:36.349Z,15.10
2023-02-18T02:15:34.898Z,15.30
2023-02-18T02:18:23.966Z,13.87
2023-02-18T02:21:37.296Z,15.60
2023-02-18T02:24:57.536Z,16.10
2023-02-18T02:27:36.854Z,14.10
2023-02-18T02:30:49.709Z,13.67
2023-02-18T02:33:59.518Z,14.40
2023-02-18T02:36:37.665Z,12.20
2023-02-18T02:39:13.207Z,14.43
2023-02-18T02:41:53.421Z,14.57
2023-02-18T02:44:23.548Z,11.37
2023-02-18T02:46:56.002Z,13.50
2023-02-18T02:49:38.153Z,13.17
2023-02-18T02:52:14.280Z,14.27
2023-02-18T02:54:42.744Z,12.57
2023-02-18T02:57:58.130Z,12.10
2023-02-18T03:00:50.357Z,14.60
2023-02-18T03:03:33.188Z,13.23
2023-02-18T03:06:27.103Z,10.83
2023-02-18T03:09:03.735Z,10.00
2023-02-18T03:11:38.521Z,9.97
2023-02-18T03:14:12.009Z,9.93
2023-02-18T03:16:49.723Z,11.67
2023-02-18T03:19:24.324Z,8.53
2023-02-18T03:22:02.422Z,9.43
2023-02-18T03:24:33.240Z,9.37
2023-02-18T03:27:08.757Z,8.83
2023-02-18T03:29:39.005Z,10.13
2023-02-18T03:32:14.225Z,11.47
2023-02-18T03:34:47.075Z,7.27
2023-02-18T03:37:16.190Z,6.57
2023-02-18T03:39:48.243Z,7.83
2023-02-18T03:42:17.364Z,8.10
2023-02-18T03:44:46.060Z,7.53
2023-02-18T03:47:15.805Z,6.60
2023-02-18T03:49:44.136Z,7.33
2023-02-18T03:52:12.526Z,7.93
2023-02-18T03:54:40.790Z,5.87
2023-02-18T03:57:10.445Z,5.83
2023-02-18T03:59:38.804Z,6.77
2023-02-18T04:02:07.020Z,7.87
2023-02-18T04:04:36.674Z,5.63
2023-02-18T04:07:05.271Z,6.27
2023-02-18T04:09:33.459Z,6.83
2023-02-18T04:12:01.657Z,7.43
2023-02-18T04:14:30.132Z,0.27
2023-02-18T04:16:58.333Z,0.50
2023-02-18T04:19:26.650Z,0.53
2023-02-18T04:21:56.323Z,2.00
2023-02-18T04:24:24.674Z,0.53
2023-02-18T04:26:53.062Z,0.20
2023-02-18T04:29:21.335Z,0.60
2023-02-18T04:31:49.568Z,0.43
2023-02-18T04:34:17.805Z,1.07
2023-02-18T04:36:46.069Z,1.33
2023-02-18T04:39:15.721Z,0.63
2023-02-18T04:41:43.922Z,0.40
2023-02-18T04:44:12.234Z,1.07
2023-02-18T04:46:40.432Z,0.60
2023-02-18T04:49:08.653Z,1.50
2023-02-18T04:51:37.659Z,4.57
2023-02-18T04:54:06.233Z,0.53
2023-02-18T04:56:35.849Z,0.50
2023-02-18T04:59:04.059Z,0.27
2023-02-18T05:01:32.297Z,1.67
2023-02-18T05:04:00.576Z,0.33
2023-02-18T05:06:28.902Z,1.80
2023-02-18T05:08:57.121Z,0.57
2023-02-18T05:11:25.385Z,1.37
2023-02-18T05:13:55.012Z,0.50
2023-02-18T05:16:23.327Z,0.50
2023-02-18T05:18:51.562Z,1.27
2023-02-18T05:21:19.852Z,0.40
2023-02-18T05:23:48.034Z,0.87
2023-02-18T05:26:16.249Z,0.47
2023-02-18T05:28:44.500Z,1.13
2023-02-18T05:31:14.264Z,3.10
2023-02-18T05:33:42.567Z,0.93
2023-02-18T05:36:10.818Z,0.70
2023-02-18T05:38:39.120Z,0.73
2023-02-18T05:41:07.360Z,0.80
2023-02-18T05:43:55.651Z,0.57
2023-02-18T05:46:30.592Z,1.00
2023-02-18T05:48:58.958Z,6.73
2023-02-18T05:51:27.231Z,0.27
2023-02-18T05:53:55.714Z,0.57
2023-02-18T05:56:24.278Z,0.30
2023-02-18T05:58:52.539Z,1.10
2023-02-18T06:01:20.768Z,0.50
2023-02-18T06:03:50.398Z,0.60
2023-02-18T06:06:18.735Z,0.60
2023-02-18T06:08:46.989Z,5.40
2023-02-18T06:11:15.238Z,0.63
2023-02-18T06:13:43.499Z,3.37
2023-02-18T06:16:12.175Z,3.60
2023-02-18T06:18:41.248Z,1.33
2023-02-18T06:21:10.879Z,0.60
2023-02-18T06:23:39.194Z,2.23
2023-02-18T06:26:07.828Z,1.10
2023-02-18T06:28:36.442Z,0.43
2023-02-18T06:31:05.399Z,0.50
2023-02-18T06:33:33.796Z,0.33
2023-02-18T06:36:03.417Z,0.27
2023-02-18T06:38:33.070Z,0.63
2023-02-18T06:41:10.668Z,0.90
2023-02-18T06:43:39.450Z,1.27
2023-02-18T06:46:08.349Z,4.80
2023-02-18T06:48:37.840Z,4.80
2023-02-18T06:51:11.336Z,3.30
2023-02-18T06:53:43.700Z,1.80
2023-02-18T06:56:22.396Z,0.20
2023-02-18T06:58:50.672Z,0.10
2023-02-18T07:01:18.965Z,0.40
2023-02-18T07:03:50.389Z,0.20
2023-02-18T07:06:18.804Z,0.43
2023-02-18T07:08:48.448Z,1.90
2023-02-18T07:11:16.667Z,0.43
2023-02-18T07:13:50.064Z,0.50
2023-02-18T07:16:21.084Z,1.20
2023-02-18T07:18:49.525Z,1.00
2023-02-18T07:21:17.963Z,0.93
2023-02-18T07:23:46.250Z,0.20
2023-02-18T07:26:16.106Z,1.00
2023-02-18T07:28:46.707Z,0.73
2023-02-18T07:31:15.013Z,1.00
2023-02-18T07:33:43.294Z,0.20
2023-02-18T07:36:11.640Z,0.60
2023-02-18T07:38:41.980Z,0.10
2023-02-18T07:41:18.916Z,0.30
2023-02-18T07:43:47.131Z,1.80
2023-02-18T07:46:15.704Z,0.27
2023-02-18T07:48:44.205Z,0.27
2023-02-18T07:51:14.021Z,0.43
2023-02-18T07:53:45.325Z,0.20
2023-02-18T07:56:15.143Z,0.80
2023-02-18T07:58:43.428Z,0.60
2023-02-18T08:01:20.427Z,0.27
2023-02-18T08:03:50.881Z,0.57
2023-02-18T08:06:23.359Z,14.77
2023-02-18T08:08:51.783Z,0.53
2023-02-18T08:11:24.310Z,3.37
2023-02-18T08:13:55.269Z,0.20
2023-02-18T08:16:31.088Z,14.20
2023-02-18T08:18:59.560Z,7.80
2023-02-18T08:21:27.870Z,9.53
2023-02-18T08:24:01.490Z,8.77
2023-02-18T08:26:36.673Z,11.57
2023-02-18T08:29:05.109Z,8.03
2023-02-18T08:31:33.473Z,8.17
2023-02-18T08:34:03.784Z,9.17
2023-02-18T08:36:32.237Z,7.60
2023-02-18T08:39:01.150Z,7.27
2023-02-18T08:41:29.523Z,5.07
2023-02-18T08:43:59.156Z,6.23
2023-02-18T08:46:35.726Z,5.60
2023-02-18T08:49:04.989Z,7.17
2023-02-18T08:51:38.928Z,8.57
2023-02-18T08:54:15.868Z,6.07
2023-02-18T08:56:46.851Z,5.17
2023-02-18T08:59:16.523Z,9.50
2023-02-18T09:01:44.837Z,8.23
2023-02-18T09:04:13.180Z,3.77
2023-02-18T09:06:44.128Z,7.63
2023-02-18T09:09:18.316Z,4.40
2023-02-18T09:11:52.614Z,9.17
2023-02-18T09:14:22.255Z,7.13
2023-02-18T09:16:51.202Z,9.00
2023-02-18T09:19:19.978Z,8.77
2023-02-18T09:21:54.248Z,7.70
2023-02-18T09:24:22.574Z,9.43
2023-02-18T09:26:51.094Z,5.43
2023-02-18T09:29:19.928Z,11.40
2023-02-18T09:31:55.132Z,4.67
2023-02-18T09:34:40.811Z,9.93
2023-02-18T09:37:09.084Z,7.93
2023-02-18T09:39:38.174Z,7.40
2023-02-18T09:42:12.295Z,14.40
2023-02-18T09:44:53.732Z,4.10
2023-02-18T09:47:33.888Z,5.13
2023-02-18T09:50:14.674Z,10.13
2023-02-18T09:52:42.928Z,5.60
2023-02-18T09:55:23.242Z,6.80
2023-02-18T09:57:53.374Z,5.73
2023-02-18T10:00:26.255Z,6.10
2023-02-18T10:03:01.030Z,6.00
2023-02-18T10:05:32.385Z,7.67
2023-02-18T10:08:06.709Z,6.17
2023-02-18T10:10:39.772Z,9.63
2023-02-18T10:13:15.073Z,8.47
2023-02-18T10:15:44.620Z,6.50
2023-02-18T10:18:25.324Z,8.87
2023-02-18T10:20:58.486Z,7.27
2023-02-18T10:23:27.977Z,9.17
2023-02-18T10:25:57.767Z,6.10
2023-02-18T10:28:37.721Z,6.90
2023-02-18T10:31:11.678Z,6.93
2023-02-18T10:33:51.663Z,7.37
2023-02-18T10:36:26.180Z,7.77
2023-02-18T10:39:13.203Z,6.97
2023-02-18T10:41:50.593Z,10.20
2023-02-18T10:44:28.586Z,8.10
2023-02-18T10:47:06.347Z,8.17
2023-02-18T10:49:54.036Z,8.93
2023-02-18T10:52:22.497Z,8.37
2023-02-18T10:54:54.289Z,8.70
2023-02-18T10:57:24.462Z,7.80
2023-02-18T10:59:58.763Z,9.13
2023-02-18T11:02:30.896Z,9.17
2023-02-18T11:05:06.622Z,8.50
2023-02-18T11:07:37.410Z,8.90
2023-02-18T11:10:17.523Z,10.23
2023-02-18T11:12:48.861Z,7.87
2023-02-18T11:15:21.429Z,9.57
2023-02-18T11:17:51.938Z,10.80
2023-02-18T11:20:31.547Z,7.13
2023-02-18T11:23:15.670Z,11.87
2023-02-18T11:25:55.754Z,11.20
2023-02-18T11:28:31.944Z,6.30
2023-02-18T11:31:03.637Z,8.03
2023-02-18T11:33:35.256Z,6.80
2023-02-18T11:36:18.561Z,9.30
2023-02-18T11:38:50.413Z,10.27
2023-02-18T11:41:22.243Z,8.87
2023-02-18T11:43:53.293Z,7.37
2023-02-18T11:46:28.169Z,10.30
2023-02-18T11:49:22.849Z,7.40
2023-02-18T11:51:53.709Z,10.30
2023-02-18T11:54:27.845Z,9.93
2023-02-18T11:56:58.892Z,12.77
2023-02-18T11:59:28.135Z,6.17
2023-02-18T12:02:02.353Z,7.37
2023-02-18T12:04:38.353Z,8.23
2023-02-18T12:07:18.659Z,9.07
2023-02-18T12:09:50.658Z,10.17
2023-02-18T12:12:24.872Z,11.70
2023-02-18T12:14:55.488Z,5.27
2023-02-18T12:17:46.780Z,9.20
2023-02-18T12:20:47.822Z,8.57
2023-02-18T12:23:27.628Z,6.80
2023-02-18T12:26:04.117Z,7.37
2023-02-18T12:29:24.744Z,8.37
2023-02-18T12:32:12.105Z,7.13
2023-02-18T12:34:54.182Z,10.00
2023-02-18T12:37:54.550Z,12.17
2023-02-18T12:41:03.508Z,8.57
2023-02-18T12:43:44.586Z,9.07
2023-02-18T12:46:24.757Z,6.20
2023-02-18T12:49:07.120Z,12.77
2023-02-18T12:51:56.349Z,11.53
2023-02-18T12:54:52.940Z,6.07
2023-02-18T12:57:37.680Z,9.93
2023-02-18T13:00:39.224Z,7.03
2023-02-18T13:03:39.232Z,11.47
2023-02-18T13:06:20.593Z,5.63
2023-02-18T13:09:04.498Z,6.70
2023-02-18T13:11:40.824Z,13.90
2023-02-18T13:14:17.249Z,7.57
2023-02-18T13:17:12.023Z,8.70
2023-02-18T13:20:11.033Z,8.40
2023-02-18T13:22:46.785Z,9.07
2023-02-18T13:25:19.696Z,9.03
2023-02-18T13:27:55.190Z,10.10
2023-02-18T13:30:32.462Z,4.53
2023-02-18T13:33:12.501Z,9.00
2023-02-18T13:35:45.213Z,9.90
2023-02-18T13:38:34.808Z,8.20
2023-02-18T13:41:23.600Z,5.80
2023-02-18T13:43:51.967Z,11.20
2023-02-18T13:46:22.885Z,10.13
2023-02-18T13:48:53.472Z,7.43
2023-02-18T13:51:31.668Z,9.37
2023-02-18T13:54:05.636Z,6.20
2023-02-18T13:56:36.676Z,5.57
2023-02-18T13:59:12.954Z,11.93
2023-02-18T14:01:47.693Z,11.10
2023-02-18T14:04:50.632Z,9.73
2023-02-18T14:07:28.368Z,8.43
2023-02-18T14:09:57.876Z,7.50
2023-02-18T14:12:36.634Z,8.67
2023-02-18T14:15:46.978Z,8.60
2023-02-18T14:18:27.758Z,8.77
2023-02-18T14:21:07.619Z,9.83
2023-02-18T14:23:59.470Z,6.43
2023-02-18T14:26:33.987Z,7.47
2023-02-18T14:29:07.030Z,9.23
2023-02-18T14:31:41.558Z,6.40
2023-02-18T14:34:53.819Z,9.40
2023-02-18T14:37:41.991Z,9.23
2023-02-18T14:40:26.419Z,11.67
2023-02-18T14:43:04.508Z,11.47
2023-02-18T14:46:00.710Z,10.93
2023-02-18T14:48:57.720Z,12.07
2023-02-18T14:51:30.501Z,9.13
2023-02-18T14:54:07.231Z,9.87
2023-02-18T14:56:56.573Z,8.93
2023-02-18T14:59:29.596Z,9.03
2023-02-18T15:01:58.305Z,7.77
2023-02-18T15:04:27.470Z,9.07
2023-02-18T15:07:05.255Z,10.63
2023-02-18T15:09:33.582Z,12.40
2023-02-18T15:12:05.668Z,9.37
2023-02-18T15:14:37.341Z,7.67
2023-02-18T15:17:07.303Z,10.10
2023-02-18T15:19:41.274Z,7.90
2023-02-18T15:22:18.236Z,8.57
2023-02-18T15:24:46.753Z,6.67
2023-02-18T15:27:21.019Z,6.77
2023-02-18T15:29:51.719Z,8.17
2023-02-18T15:32:21.842Z,10.10
2023-02-18T15:34:53.327Z,9.80
2023-02-18T15:37:23.089Z,8.73
2023-02-18T15:39:54.164Z,8.50
2023-02-18T15:42:28.465Z,10.70
2023-02-18T15:45:04.790Z,9.00
2023-02-18T15:47:34.270Z,10.90
2023-02-18T15:50:04.671Z,8.17
2023-02-18T15:52:39.436Z,12.63
2023-02-18T15:55:13.724Z,8.20
2023-02-18T15:57:43.353Z,8.03
2023-02-18T16:00:17.386Z,11.87
2023-02-18T16:02:54.809Z,9.87
2023-02-18T16:05:27.700Z,9.00
2023-02-18T16:08:03.144Z,10.00
2023-02-18T16:10:48.478Z,9.07
2023-02-18T16:13:18.477Z,10.50
2023-02-18T16:15:51.243Z,10.73
2023-02-18T16:18:48.948Z,9.80
2023-02-18T16:21:39.892Z,7.33
2023-02-18T16:24:26.572Z,7.33
2023-02-18T16:26:55.904Z,8.00
2023-02-18T16:29:26.701Z,10.23
2023-02-18T16:31:56.209Z,8.83
2023-02-18T16:34:24.501Z,8.90
2023-02-18T16:37:12.714Z,9.13
2023-02-18T16:39:42.989Z,9.03
2023-02-18T16:42:11.879Z,9.57
2023-02-18T16:44:40.898Z,10.87
2023-02-18T16:47:13.188Z,7.67
2023-02-18T16:49:43.391Z,10.10
2023-02-18T16:52:15.220Z,10.30
2023-02-18T16:54:45.049Z,8.20
2023-02-18T16:57:13.270Z,6.17
2023-02-18T16:59:41.726Z,9.30
2023-02-18T17:02:18.338Z,10.63
2023-02-18T17:04:46.595Z,9.43
2023-02-18T17:07:14.880Z,8.07
2023-02-18T17:09:44.490Z,14.77
2023-02-18T17:12:13.433Z,13.43
2023-02-18T17:14:41.932Z,13.13
2023-02-18T17:17:13.858Z,10.97
2023-02-18T17:19:42.120Z,11.07
2023-02-18T17:22:15.305Z,13.23
2023-02-18T17:24:47.849Z,15.23
2023-02-18T17:27:16.085Z,10.83
2023-02-18T17:29:44.356Z,12.97
2023-02-18T17:32:15.370Z,12.00
2023-02-18T17:34:43.729Z,15.10
2023-02-18T17:37:18.172Z,15.53
2023-02-18T17:39:47.749Z,13.20
2023-02-18T17:42:22.264Z,12.33
2023-02-18T17:45:20.301Z,14.33
2023-02-18T17:47:48.865Z,15.60
2023-02-18T17:50:24.831Z,15.57
2023-02-18T17:52:53.189Z,13.13
2023-02-18T17:55:24.627Z,14.90
2023-02-18T17:57:53.904Z,12.37
2023-02-18T18:00:28.178Z,14.43
2023-02-18T18:02:58.873Z,17.33
2023-02-18T18:05:29.293Z,13.60
2023-02-18T18:08:00.950Z,15.93
2023-02-18T18:10:33.195Z,15.63
2023-02-18T18:13:37.123Z,12.67
2023-02-18T18:16:06.249Z,14.20
2023-02-18T18:18:34.485Z,19.13
2023-02-18T18:21:04.440Z,21.40
2023-02-18T18:23:48.023Z,18.00
2023-02-18T18:26:20.545Z,13.97
2023-02-18T18:28:48.802Z,12.83
2023-02-18T18:31:19.639Z,17.53
2023-02-18T18:33:50.550Z,14.87
2023-02-18T18:36:24.935Z,15.53
2023-02-18T18:38:55.571Z,15.07
2023-02-18T18:41:30.354Z,18.70
2023-02-18T18:43:58.625Z,15.60
2023-02-18T18:46:39.130Z,11.23
2023-02-18T18:49:07.383Z,16.40
2023-02-18T18:51:41.550Z,16.03
2023-02-18T18:54:10.761Z,16.20
2023-02-18T18:56:40.984Z,13.97
2023-02-18T18:59:10.134Z,17.23
2023-02-18T19:01:41.515Z,16.97
2023-02-18T19:04:27.811Z,14.70
2023-02-18T19:06:56.115Z,16.37
2023-02-18T19:09:24.335Z,17.80
2023-02-18T19:11:53.928Z,17.10
2023-02-18T19:14:31.265Z,18.13
2023-02-18T19:17:06.954Z,16.40
2023-02-18T19:19:35.294Z,15.63
2023-02-18T19:22:03.712Z,18.00
2023-02-18T19:24:31.997Z,16.07
2023-02-18T19:27:01.620Z,18.20
2023-02-18T19:29:29.978Z,16.87
2023-02-18T19:31:58.351Z,22.07
2023-02-18T19:34:26.769Z,18.77
2023-02-18T19:36:55.661Z,18.70
2023-02-18T19:39:23.899Z,17.87
2023-02-18T19:41:52.162Z,18.97
2023-02-18T19:44:21.761Z,15.60
2023-02-18T19:46:50.122Z,18.33
2023-02-18T19:49:18.374Z,17.13
2023-02-18T19:51:46.584Z,17.33
2023-02-18T19:54:14.827Z,15.47
2023-02-18T19:56:43.097Z,19.50
2023-02-18T19:59:11.399Z,16.33
2023-02-18T20:01:42.058Z,17.43
2023-02-18T20:04:11.160Z,16.90
2023-02-18T20:06:40.317Z,20.90
2023-02-18T20:09:08.531Z,13.93
2023-02-18T20:11:36.851Z,16.00
2023-02-18T20:14:05.093Z,16.20
2023-02-18T20:16:33.372Z,13.63
2023-02-18T20:19:03.072Z,17.53
2023-02-18T20:21:31.334Z,17.80
2023-02-18T20:23:59.687Z,16.13
2023-02-18T20:26:27.956Z,12.83
2023-02-18T20:28:56.548Z,16.10
2023-02-18T20:31:24.816Z,17.00
2023-02-18T20:33:53.216Z,16.63
2023-02-18T20:36:22.950Z,17.30
2023-02-18T20:38:52.574Z,16.97
2023-02-18T20:41:22.704Z,15.87
2023-02-18T20:43:51.011Z,15.60
2023-02-18T20:46:20.947Z,15.13
2023-02-18T20:48:49.408Z,17.77
2023-02-18T20:51:20.116Z,19.93
2023-02-18T20:53:49.982Z,21.10
2023-02-18T20:56:20.741Z,18.87
2023-02-18T20:58:49.435Z,16.43
2023-02-18T21:01:19.056Z,13.43
2023-02-18T21:03:48.240Z,17.80
2023-02-18T21:06:19.248Z,17.00
2023-02-18T21:08:50.807Z,14.83
2023-02-18T21:11:21.052Z,15.77
2023-02-18T21:13:50.548Z,13.83
2023-02-18T21:16:21.291Z,15.73
2023-02-18T21:18:50.351Z,15.67
2023-02-18T21:21:20.255Z,17.43
2023-02-18T21:23:49.860Z,17.73
2023-02-18T21:26:20.045Z,19.23
2023-02-18T21:28:49.382Z,21.00
2023-02-18T21:31:19.236Z,18.73
2023-02-18T21:33:47.930Z,22.73
2023-02-18T21:36:16.876Z,14.80
2023-02-18T21:38:45.483Z,20.83
2023-02-18T21:41:15.075Z,18.00
2023-02-18T21:43:45.656Z,18.10
2023-02-18T21:46:16.613Z,18.10
2023-02-18T21:49:03.473Z,13.67
2023-02-18T21:51:51.115Z,15.60
2023-02-18T21:54:19.862Z,15.30
2023-02-18T21:56:50.041Z,16.20
2023-02-18T21:59:18.646Z,20.67
2023-02-18T22:01:46.927Z,13.83
2023-02-18T22:04:15.196Z,18.87
2023-02-18T22:06:43.648Z,20.43
2023-02-18T22:09:14.785Z,15.63
2023-02-18T22:11:43.306Z,18.10
2023-02-18T22:14:14.570Z,18.67
2023-02-18T22:16:42.929Z,18.87
2023-02-18T22:19:12.241Z,16.77
2023-02-18T22:21:41.795Z,16.90
2023-02-18T22:24:10.994Z,22.33
2023-02-18T22:26:39.649Z,19.30
2023-02-18T22:29:07.948Z,21.93
2023-02-18T22:31:38.889Z,20.10
2023-02-18T22:34:07.345Z,21.93
2023-02-18T22:36:35.867Z,16.23
2023-02-18T22:39:04.664Z,16.63
2023-02-18T22:41:34.303Z,17.60
2023-02-18T22:44:04.845Z,12.97
2023-02-18T22:46:35.511Z,15.27
2023-02-18T22:49:06.156Z,16.53
2023-02-18T22:51:37.796Z,17.30
2023-02-18T22:54:07.702Z,18.53
2023-02-18T22:56:36.054Z,20.23
2023-02-18T22:59:04.520Z,20.53
2023-02-18T23:01:34.800Z,17.67
2023-02-18T23:04:07.360Z,17.17
2023-02-18T23:06:36.800Z,20.90
2023-02-18T23:09:06.036Z,19.37
2023-02-18T23:11:34.693Z,18.13
2023-02-18T23:14:21.651Z,16.03
2023-02-18T23:17:09.470Z,18.60
2023-02-18T23:19:42.218Z,17.27
2023-02-18T23:22:11.998Z,18.33
2023-02-18T23:24:42.529Z,21.10
2023-02-18T23:27:13.040Z,23.07
2023-02-18T23:29:41.582Z,21.63
2023-02-18T23:32:12.640Z,19.90
2023-02-18T23:34:42.329Z,16.77
2023-02-18T23:37:10.799Z,18.03
2023-02-18T23:39:40.443Z,18.83
2023-02-18T23:42:08.861Z,19.07
2023-02-18T23:44:37.053Z,16.57
2023-02-18T23:47:05.344Z,21.23
2023-02-18T23:49:33.536Z,21.90
2023-02-18T23:52:03.163Z,16.33
2023-02-18T23:54:31.335Z,18.83
2023-02-18T23:56:59.636Z,25.13
2023-02-18T23:59:27.843Z,19.00
